sensor_id;sensor_type;location;lat;lon;timestamp;temperature;humidity
47338;DHT22;33069;51.970;5.892;2023-01-24T00:00:11;3.90;74.50
47338;DHT22;33069;51.970;5.892;2023-01-24T00:02:37;3.90;74.90
47338;DHT22;33069;51.970;5.892;2023-01-24T00:05:04;3.80;75.30
47338;DHT22;33069;51.970;5.892;2023-01-24T00:07:30;3.90;75.50
47338;DHT22;33069;51.970;5.892;2023-01-24T00:09:56;3.80;74.90
47338;DHT22;33069;51.970;5.892;2023-01-24T00:12:22;3.80;75.50
47338;DHT22;33069;51.970;5.892;2023-01-24T00:14:48;3.60;75.30
47338;DHT22;33069;51.970;5.892;2023-01-24T00:17:13;3.70;75.30
47338;DHT22;33069;51.970;5.892;2023-01-24T00:19:39;3.70;75.00
47338;DHT22;33069;51.970;5.892;2023-01-24T00:22:05;3.80;75.50
47338;DHT22;33069;51.970;5.892;2023-01-24T00:24:32;3.90;75.10
47338;DHT22;33069;51.970;5.892;2023-01-24T00:27:01;3.80;75.30
47338;DHT22;33069;51.970;5.892;2023-01-24T00:29:26;3.70;74.90
47338;DHT22;33069;51.970;5.892;2023-01-24T00:31:52;3.90;75.50
47338;DHT22;33069;51.970;5.892;2023-01-24T00:34:18;3.80;75.40
47338;DHT22;33069;51.970;5.892;2023-01-24T00:36:44;4.00;75.40
47338;DHT22;33069;51.970;5.892;2023-01-24T00:39:12;4.10;74.90
47338;DHT22;33069;51.970;5.892;2023-01-24T00:41:38;3.90;74.10
47338;DHT22;33069;51.970;5.892;2023-01-24T00:44:04;3.70;74.90
47338;DHT22;33069;51.970;5.892;2023-01-24T00:46:30;4.00;74.70
47338;DHT22;33069;51.970;5.892;2023-01-24T00:48:55;4.00;74.50
47338;DHT22;33069;51.970;5.892;2023-01-24T00:51:21;3.90;74.60
47338;DHT22;33069;51.970;5.892;2023-01-24T00:53:47;4.00;74.50
47338;DHT22;33069;51.970;5.892;2023-01-24T00:56:13;4.10;74.70
47338;DHT22;33069;51.970;5.892;2023-01-24T00:58:38;4.00;73.80
47338;DHT22;33069;51.970;5.892;2023-01-24T01:01:04;4.00;74.60
47338;DHT22;33069;51.970;5.892;2023-01-24T01:03:30;4.00;74.20
47338;DHT22;33069;51.970;5.892;2023-01-24T01:08:25;3.90;75.20
47338;DHT22;33069;51.970;5.892;2023-01-24T01:10:50;3.90;74.10
47338;DHT22;33069;51.970;5.892;2023-01-24T01:13:16;3.90;74.00
47338;DHT22;33069;51.970;5.892;2023-01-24T01:15:42;4.00;74.70
47338;DHT22;33069;51.970;5.892;2023-01-24T01:18:08;4.00;74.50
47338;DHT22;33069;51.970;5.892;2023-01-24T01:20:34;3.90;74.70
47338;DHT22;33069;51.970;5.892;2023-01-24T01:22:59;3.80;74.80
47338;DHT22;33069;51.970;5.892;2023-01-24T01:25:25;3.70;75.10
47338;DHT22;33069;51.970;5.892;2023-01-24T01:27:51;4.00;74.50
47338;DHT22;33069;51.970;5.892;2023-01-24T01:30:17;3.80;74.60
47338;DHT22;33069;51.970;5.892;2023-01-24T01:32:42;3.80;75.30
47338;DHT22;33069;51.970;5.892;2023-01-24T01:35:36;3.70;75.30
47338;DHT22;33069;51.970;5.892;2023-01-24T01:38:21;3.80;75.70
47338;DHT22;33069;51.970;5.892;2023-01-24T01:40:50;3.80;75.70
47338;DHT22;33069;51.970;5.892;2023-01-24T01:43:21;3.60;75.50
47338;DHT22;33069;51.970;5.892;2023-01-24T01:45:49;3.80;76.20
47338;DHT22;33069;51.970;5.892;2023-01-24T01:48:19;3.70;76.00
47338;DHT22;33069;51.970;5.892;2023-01-24T01:50:58;3.70;76.40
47338;DHT22;33069;51.970;5.892;2023-01-24T01:53:28;3.50;76.60
47338;DHT22;33069;51.970;5.892;2023-01-24T01:56:00;3.70;76.60
47338;DHT22;33069;51.970;5.892;2023-01-24T01:58:27;3.70;76.40
47338;DHT22;33069;51.970;5.892;2023-01-24T02:00:54;3.60;76.60
47338;DHT22;33069;51.970;5.892;2023-01-24T02:03:32;3.90;76.30
47338;DHT22;33069;51.970;5.892;2023-01-24T02:06:16;3.90;75.80
47338;DHT22;33069;51.970;5.892;2023-01-24T02:08:43;3.80;76.30
47338;DHT22;33069;51.970;5.892;2023-01-24T02:11:11;3.70;76.10
47338;DHT22;33069;51.970;5.892;2023-01-24T02:13:57;3.50;76.60
47338;DHT22;33069;51.970;5.892;2023-01-24T02:16:43;3.50;77.00
47338;DHT22;33069;51.970;5.892;2023-01-24T02:19:15;3.70;76.90
47338;DHT22;33069;51.970;5.892;2023-01-24T02:21:47;3.60;76.90
47338;DHT22;33069;51.970;5.892;2023-01-24T02:24:26;3.40;76.60
47338;DHT22;33069;51.970;5.892;2023-01-24T02:26:54;3.50;77.00
47338;DHT22;33069;51.970;5.892;2023-01-24T02:29:20;3.50;77.10
47338;DHT22;33069;51.970;5.892;2023-01-24T02:34:18;3.60;77.20
47338;DHT22;33069;51.970;5.892;2023-01-24T02:36:44;3.60;77.10
47338;DHT22;33069;51.970;5.892;2023-01-24T02:39:14;3.70;77.00
47338;DHT22;33069;51.970;5.892;2023-01-24T02:42:13;3.50;76.50
47338;DHT22;33069;51.970;5.892;2023-01-24T02:47:29;3.40;77.40
47338;DHT22;33069;51.970;5.892;2023-01-24T02:49:59;3.40;77.30
47338;DHT22;33069;51.970;5.892;2023-01-24T02:52:25;3.50;77.10
47338;DHT22;33069;51.970;5.892;2023-01-24T02:55:19;3.40;77.00
47338;DHT22;33069;51.970;5.892;2023-01-24T02:57:44;3.50;77.30
47338;DHT22;33069;51.970;5.892;2023-01-24T03:00:29;3.30;77.10
47338;DHT22;33069;51.970;5.892;2023-01-24T03:02:54;3.20;77.60
47338;DHT22;33069;51.970;5.892;2023-01-24T03:05:20;3.40;78.20
47338;DHT22;33069;51.970;5.892;2023-01-24T03:07:46;3.40;77.30
47338;DHT22;33069;51.970;5.892;2023-01-24T03:10:15;3.20;77.20
47338;DHT22;33069;51.970;5.892;2023-01-24T03:12:41;3.20;77.80
47338;DHT22;33069;51.970;5.892;2023-01-24T03:15:26;3.30;77.70
47338;DHT22;33069;51.970;5.892;2023-01-24T03:18:10;3.70;77.30
47338;DHT22;33069;51.970;5.892;2023-01-24T03:20:55;3.40;76.90
47338;DHT22;33069;51.970;5.892;2023-01-24T03:23:39;3.50;77.90
47338;DHT22;33069;51.970;5.892;2023-01-24T03:26:23;3.60;77.80
47338;DHT22;33069;51.970;5.892;2023-01-24T03:29:08;3.40;77.30
47338;DHT22;33069;51.970;5.892;2023-01-24T03:31:53;3.30;77.40
47338;DHT22;33069;51.970;5.892;2023-01-24T03:34:38;3.40;77.70
47338;DHT22;33069;51.970;5.892;2023-01-24T03:37:20;3.60;77.10
47338;DHT22;33069;51.970;5.892;2023-01-24T03:40:08;3.30;76.90
47338;DHT22;33069;51.970;5.892;2023-01-24T03:42:34;3.50;77.50
47338;DHT22;33069;51.970;5.892;2023-01-24T03:45:01;3.40;77.60
47338;DHT22;33069;51.970;5.892;2023-01-24T03:47:27;3.50;77.30
47338;DHT22;33069;51.970;5.892;2023-01-24T03:49:52;3.50;76.90
47338;DHT22;33069;51.970;5.892;2023-01-24T03:52:37;3.20;77.50
47338;DHT22;33069;51.970;5.892;2023-01-24T03:55:02;3.10;77.20
47338;DHT22;33069;51.970;5.892;2023-01-24T03:57:29;3.20;77.60
47338;DHT22;33069;51.970;5.892;2023-01-24T03:59:55;3.40;77.90
47338;DHT22;33069;51.970;5.892;2023-01-24T04:02:22;3.20;76.80
47338;DHT22;33069;51.970;5.892;2023-01-24T04:04:48;3.30;78.00
47338;DHT22;33069;51.970;5.892;2023-01-24T04:07:32;3.30;77.60
47338;DHT22;33069;51.970;5.892;2023-01-24T04:09:58;3.20;77.70
47338;DHT22;33069;51.970;5.892;2023-01-24T04:12:25;3.10;78.10
47338;DHT22;33069;51.970;5.892;2023-01-24T04:14:51;3.30;78.50
47338;DHT22;33069;51.970;5.892;2023-01-24T04:17:16;3.20;78.10
47338;DHT22;33069;51.970;5.892;2023-01-24T04:19:42;3.20;78.20
47338;DHT22;33069;51.970;5.892;2023-01-24T04:22:08;3.30;78.00
47338;DHT22;33069;51.970;5.892;2023-01-24T04:24:34;3.10;78.20
47338;DHT22;33069;51.970;5.892;2023-01-24T04:27:00;3.10;77.90
47338;DHT22;33069;51.970;5.892;2023-01-24T04:29:25;3.00;78.30
47338;DHT22;33069;51.970;5.892;2023-01-24T04:31:51;3.00;78.60
47338;DHT22;33069;51.970;5.892;2023-01-24T04:34:17;3.00;78.60
47338;DHT22;33069;51.970;5.892;2023-01-24T04:36:42;3.00;78.50
47338;DHT22;33069;51.970;5.892;2023-01-24T04:39:08;3.00;78.30
47338;DHT22;33069;51.970;5.892;2023-01-24T04:44:40;3.20;78.10
47338;DHT22;33069;51.970;5.892;2023-01-24T04:47:06;3.10;78.20
47338;DHT22;33069;51.970;5.892;2023-01-24T04:49:32;3.10;78.50
47338;DHT22;33069;51.970;5.892;2023-01-24T04:51:57;3.00;78.50
47338;DHT22;33069;51.970;5.892;2023-01-24T04:54:23;3.20;78.20
47338;DHT22;33069;51.970;5.892;2023-01-24T04:56:49;3.00;78.20
47338;DHT22;33069;51.970;5.892;2023-01-24T04:59:15;3.00;78.30
47338;DHT22;33069;51.970;5.892;2023-01-24T05:01:40;3.20;79.00
47338;DHT22;33069;51.970;5.892;2023-01-24T05:04:06;3.10;78.30
47338;DHT22;33069;51.970;5.892;2023-01-24T05:06:33;2.90;78.40
47338;DHT22;33069;51.970;5.892;2023-01-24T05:08:59;3.00;79.10
47338;DHT22;33069;51.970;5.892;2023-01-24T05:11:26;3.10;78.50
47338;DHT22;33069;51.970;5.892;2023-01-24T05:13:52;3.00;78.60
47338;DHT22;33069;51.970;5.892;2023-01-24T05:16:18;3.00;79.00
47338;DHT22;33069;51.970;5.892;2023-01-24T05:18:43;3.10;78.60
47338;DHT22;33069;51.970;5.892;2023-01-24T05:21:14;3.10;78.50
47338;DHT22;33069;51.970;5.892;2023-01-24T05:23:41;2.90;78.60
47338;DHT22;33069;51.970;5.892;2023-01-24T05:26:07;2.80;79.10
47338;DHT22;33069;51.970;5.892;2023-01-24T05:28:33;2.70;79.20
47338;DHT22;33069;51.970;5.892;2023-01-24T05:31:01;2.80;79.50
47338;DHT22;33069;51.970;5.892;2023-01-24T05:33:27;2.80;79.50
47338;DHT22;33069;51.970;5.892;2023-01-24T05:36:01;2.80;79.80
47338;DHT22;33069;51.970;5.892;2023-01-24T05:38:27;3.10;79.70
47338;DHT22;33069;51.970;5.892;2023-01-24T05:40:53;3.10;79.20
47338;DHT22;33069;51.970;5.892;2023-01-24T05:43:37;2.90;79.00
47338;DHT22;33069;51.970;5.892;2023-01-24T05:46:07;2.70;79.10
47338;DHT22;33069;51.970;5.892;2023-01-24T05:48:33;2.70;79.40
47338;DHT22;33069;51.970;5.892;2023-01-24T05:51:07;2.60;79.70
47338;DHT22;33069;51.970;5.892;2023-01-24T05:53:34;2.70;79.80
47338;DHT22;33069;51.970;5.892;2023-01-24T05:56:03;2.70;80.00
47338;DHT22;33069;51.970;5.892;2023-01-24T05:58:33;2.60;80.00
47338;DHT22;33069;51.970;5.892;2023-01-24T06:00:59;2.60;80.10
47338;DHT22;33069;51.970;5.892;2023-01-24T06:03:25;2.60;79.80
47338;DHT22;33069;51.970;5.892;2023-01-24T06:05:54;2.70;79.80
47338;DHT22;33069;51.970;5.892;2023-01-24T06:08:21;2.70;79.30
47338;DHT22;33069;51.970;5.892;2023-01-24T06:10:47;2.70;79.40
47338;DHT22;33069;51.970;5.892;2023-01-24T06:13:13;2.70;79.30
47338;DHT22;33069;51.970;5.892;2023-01-24T06:15:39;2.70;79.40
47338;DHT22;33069;51.970;5.892;2023-01-24T06:18:06;2.70;79.60
47338;DHT22;33069;51.970;5.892;2023-01-24T06:20:33;2.70;79.40
47338;DHT22;33069;51.970;5.892;2023-01-24T06:23:03;2.60;79.40
47338;DHT22;33069;51.970;5.892;2023-01-24T06:25:29;2.60;79.50
47338;DHT22;33069;51.970;5.892;2023-01-24T06:27:55;2.70;79.50
47338;DHT22;33069;51.970;5.892;2023-01-24T06:30:21;2.60;79.40
47338;DHT22;33069;51.970;5.892;2023-01-24T06:35:57;2.70;79.40
47338;DHT22;33069;51.970;5.892;2023-01-24T06:38:28;2.70;79.50
47338;DHT22;33069;51.970;5.892;2023-01-24T06:41:00;2.70;79.40
47338;DHT22;33069;51.970;5.892;2023-01-24T06:43:26;2.90;79.50
47338;DHT22;33069;51.970;5.892;2023-01-24T06:45:52;2.70;79.30
47338;DHT22;33069;51.970;5.892;2023-01-24T06:48:18;2.90;79.60
47338;DHT22;33069;51.970;5.892;2023-01-24T06:50:44;2.90;79.50
47338;DHT22;33069;51.970;5.892;2023-01-24T06:53:10;2.90;79.20
47338;DHT22;33069;51.970;5.892;2023-01-24T06:55:37;2.80;79.00
47338;DHT22;33069;51.970;5.892;2023-01-24T06:58:03;2.70;79.40
47338;DHT22;33069;51.970;5.892;2023-01-24T07:00:30;2.70;79.60
47338;DHT22;33069;51.970;5.892;2023-01-24T07:03:02;2.80;79.90
47338;DHT22;33069;51.970;5.892;2023-01-24T07:05:56;2.70;79.90
47338;DHT22;33069;51.970;5.892;2023-01-24T07:08:40;2.70;79.90
47338;DHT22;33069;51.970;5.892;2023-01-24T07:11:06;2.50;79.90
47338;DHT22;33069;51.970;5.892;2023-01-24T07:13:32;2.40;80.30
47338;DHT22;33069;51.970;5.892;2023-01-24T07:16:01;2.40;80.50
47338;DHT22;33069;51.970;5.892;2023-01-24T07:18:27;2.40;80.60
47338;DHT22;33069;51.970;5.892;2023-01-24T07:20:53;2.70;80.60
47338;DHT22;33069;51.970;5.892;2023-01-24T07:23:26;2.50;79.90
47338;DHT22;33069;51.970;5.892;2023-01-24T07:25:58;2.50;80.30
47338;DHT22;33069;51.970;5.892;2023-01-24T07:28:24;2.80;80.40
47338;DHT22;33069;51.970;5.892;2023-01-24T07:30:52;2.80;79.70
47338;DHT22;33069;51.970;5.892;2023-01-24T07:33:18;2.70;79.50
47338;DHT22;33069;51.970;5.892;2023-01-24T07:35:44;2.90;79.70
47338;DHT22;33069;51.970;5.892;2023-01-24T07:38:10;3.00;79.30
47338;DHT22;33069;51.970;5.892;2023-01-24T07:40:39;2.90;78.90
47338;DHT22;33069;51.970;5.892;2023-01-24T07:43:41;2.90;79.10
47338;DHT22;33069;51.970;5.892;2023-01-24T07:46:06;2.80;79.20
47338;DHT22;33069;51.970;5.892;2023-01-24T07:48:32;2.80;79.40
47338;DHT22;33069;51.970;5.892;2023-01-24T07:50:59;2.70;79.70
47338;DHT22;33069;51.970;5.892;2023-01-24T07:53:25;2.60;79.60
47338;DHT22;33069;51.970;5.892;2023-01-24T07:55:51;2.50;79.80
47338;DHT22;33069;51.970;5.892;2023-01-24T07:58:17;2.50;80.30
47338;DHT22;33069;51.970;5.892;2023-01-24T08:00:42;2.70;80.50
47338;DHT22;33069;51.970;5.892;2023-01-24T08:03:10;2.60;80.00
47338;DHT22;33069;51.970;5.892;2023-01-24T08:05:37;2.60;79.80
47338;DHT22;33069;51.970;5.892;2023-01-24T08:08:03;2.50;80.00
47338;DHT22;33069;51.970;5.892;2023-01-24T08:10:28;2.60;80.30
47338;DHT22;33069;51.970;5.892;2023-01-24T08:12:54;2.60;80.30
47338;DHT22;33069;51.970;5.892;2023-01-24T08:15:20;2.70;80.20
47338;DHT22;33069;51.970;5.892;2023-01-24T08:17:46;2.80;79.90
47338;DHT22;33069;51.970;5.892;2023-01-24T08:20:12;2.70;79.80
47338;DHT22;33069;51.970;5.892;2023-01-24T08:22:39;2.70;80.00
47338;DHT22;33069;51.970;5.892;2023-01-24T08:25:06;2.70;80.00
47338;DHT22;33069;51.970;5.892;2023-01-24T08:27:32;2.80;80.20
47338;DHT22;33069;51.970;5.892;2023-01-24T08:29:58;3.00;80.00
47338;DHT22;33069;51.970;5.892;2023-01-24T08:32:23;3.00;79.90
47338;DHT22;33069;51.970;5.892;2023-01-24T08:34:49;2.70;79.20
47338;DHT22;33069;51.970;5.892;2023-01-24T08:37:16;2.70;79.30
47338;DHT22;33069;51.970;5.892;2023-01-24T08:39:41;2.80;79.50
47338;DHT22;33069;51.970;5.892;2023-01-24T08:42:35;2.70;79.20
47338;DHT22;33069;51.970;5.892;2023-01-24T08:45:01;2.80;79.30
47338;DHT22;33069;51.970;5.892;2023-01-24T08:47:26;2.70;78.70
47338;DHT22;33069;51.970;5.892;2023-01-24T08:49:52;2.70;78.90
47338;DHT22;33069;51.970;5.892;2023-01-24T08:52:18;2.70;79.30
47338;DHT22;33069;51.970;5.892;2023-01-24T08:54:43;2.60;79.20
47338;DHT22;33069;51.970;5.892;2023-01-24T08:57:09;2.70;79.60
47338;DHT22;33069;51.970;5.892;2023-01-24T08:59:35;2.90;79.30
47338;DHT22;33069;51.970;5.892;2023-01-24T09:02:00;2.90;79.00
47338;DHT22;33069;51.970;5.892;2023-01-24T09:04:26;2.90;78.90
47338;DHT22;33069;51.970;5.892;2023-01-24T09:06:52;2.70;78.90
47338;DHT22;33069;51.970;5.892;2023-01-24T09:09:19;2.80;79.50
47338;DHT22;33069;51.970;5.892;2023-01-24T09:11:44;2.90;78.80
47338;DHT22;33069;51.970;5.892;2023-01-24T09:14:10;2.70;78.70
47338;DHT22;33069;51.970;5.892;2023-01-24T09:16:36;2.70;78.30
47338;DHT22;33069;51.970;5.892;2023-01-24T09:19:02;2.80;78.70
47338;DHT22;33069;51.970;5.892;2023-01-24T09:21:27;2.70;78.60
47338;DHT22;33069;51.970;5.892;2023-01-24T09:23:54;3.00;78.20
47338;DHT22;33069;51.970;5.892;2023-01-24T09:26:20;3.00;77.90
47338;DHT22;33069;51.970;5.892;2023-01-24T09:28:46;2.80;77.60
47338;DHT22;33069;51.970;5.892;2023-01-24T09:31:11;2.70;78.00
47338;DHT22;33069;51.970;5.892;2023-01-24T09:33:53;2.90;78.40
47338;DHT22;33069;51.970;5.892;2023-01-24T09:36:19;2.80;78.00
47338;DHT22;33069;51.970;5.892;2023-01-24T09:38:44;2.80;78.00
47338;DHT22;33069;51.970;5.892;2023-01-24T09:43:50;2.90;78.60
47338;DHT22;33069;51.970;5.892;2023-01-24T09:46:38;3.00;78.70
47338;DHT22;33069;51.970;5.892;2023-01-24T09:49:14;3.10;78.20
47338;DHT22;33069;51.970;5.892;2023-01-24T09:51:48;3.10;78.00
47338;DHT22;33069;51.970;5.892;2023-01-24T09:54:50;3.20;77.70
47338;DHT22;33069;51.970;5.892;2023-01-24T09:57:26;3.40;77.90
47338;DHT22;33069;51.970;5.892;2023-01-24T10:00:04;3.40;77.60
47338;DHT22;33069;51.970;5.892;2023-01-24T10:02:36;3.30;77.10
47338;DHT22;33069;51.970;5.892;2023-01-24T10:05:01;3.20;77.30
47338;DHT22;33069;51.970;5.892;2023-01-24T10:07:51;3.00;77.40
47338;DHT22;33069;51.970;5.892;2023-01-24T10:25:23;2.90;78.20
47338;DHT22;33069;51.970;5.892;2023-01-24T10:27:53;2.80;77.90
47338;DHT22;33069;51.970;5.892;2023-01-24T10:30:28;2.80;78.20
47338;DHT22;33069;51.970;5.892;2023-01-24T10:33:01;2.90;78.20
47338;DHT22;33069;51.970;5.892;2023-01-24T10:37:59;3.20;77.80
47338;DHT22;33069;51.970;5.892;2023-01-24T10:40:25;3.00;77.20
47338;DHT22;33069;51.970;5.892;2023-01-24T10:42:52;2.80;77.30
47338;DHT22;33069;51.970;5.892;2023-01-24T10:48:10;2.80;78.20
47338;DHT22;33069;51.970;5.892;2023-01-24T10:50:42;2.80;77.90
47338;DHT22;33069;51.970;5.892;2023-01-24T10:53:22;2.70;78.00
47338;DHT22;33069;51.970;5.892;2023-01-24T10:55:50;3.20;78.40
47338;DHT22;33069;51.970;5.892;2023-01-24T10:58:26;3.00;77.60
47338;DHT22;33069;51.970;5.892;2023-01-24T11:03:44;3.20;77.00
47338;DHT22;33069;51.970;5.892;2023-01-24T11:06:32;3.00;76.80
47338;DHT22;33069;51.970;5.892;2023-01-24T11:09:09;3.10;77.30
47338;DHT22;33069;51.970;5.892;2023-01-24T11:11:44;3.20;77.20
47338;DHT22;33069;51.970;5.892;2023-01-24T11:14:17;3.30;76.50
47338;DHT22;33069;51.970;5.892;2023-01-24T11:16:47;3.20;76.90
47338;DHT22;33069;51.970;5.892;2023-01-24T11:19:26;3.10;76.60
47338;DHT22;33069;51.970;5.892;2023-01-24T11:21:59;3.10;76.90
47338;DHT22;33069;51.970;5.892;2023-01-24T11:24:26;2.90;77.20
47338;DHT22;33069;51.970;5.892;2023-01-24T11:27:15;2.80;77.50
47338;DHT22;33069;51.970;5.892;2023-01-24T11:29:41;3.20;77.20
47338;DHT22;33069;51.970;5.892;2023-01-24T11:40:32;3.20;76.10
47338;DHT22;33069;51.970;5.892;2023-01-24T11:48:53;3.30;75.70
47338;DHT22;33069;51.970;5.892;2023-01-24T11:56:55;3.20;75.60
47338;DHT22;33069;51.970;5.892;2023-01-24T12:11:01;3.10;76.30
47338;DHT22;33069;51.970;5.892;2023-01-24T12:21:59;2.90;76.40
47338;DHT22;33069;51.970;5.892;2023-01-24T12:24:31;3.00;76.10
47338;DHT22;33069;51.970;5.892;2023-01-24T12:27:14;3.00;76.30
47338;DHT22;33069;51.970;5.892;2023-01-24T12:29:48;3.30;76.00
47338;DHT22;33069;51.970;5.892;2023-01-24T12:32:25;3.30;75.90
47338;DHT22;33069;51.970;5.892;2023-01-24T12:37:54;3.30;75.40
47338;DHT22;33069;51.970;5.892;2023-01-24T12:40:46;3.30;75.30
47338;DHT22;33069;51.970;5.892;2023-01-24T12:46:45;3.70;74.60
47338;DHT22;33069;51.970;5.892;2023-01-24T12:50:08;3.50;74.20
47338;DHT22;33069;51.970;5.892;2023-01-24T12:52:17;3.50;74.80
47338;DHT22;33069;51.970;5.892;2023-01-24T12:55:12;3.30;75.30
47338;DHT22;33069;51.970;5.892;2023-01-24T12:57:43;3.40;76.10
47338;DHT22;33069;51.970;5.892;2023-01-24T13:00:18;3.20;75.40
47338;DHT22;33069;51.970;5.892;2023-01-24T13:10:55;3.00;76.00
47338;DHT22;33069;51.970;5.892;2023-01-24T13:13:54;3.00;76.30
47338;DHT22;33069;51.970;5.892;2023-01-24T13:16:36;3.20;76.70
47338;DHT22;33069;51.970;5.892;2023-01-24T13:24:44;2.90;75.80
47338;DHT22;33069;51.970;5.892;2023-01-24T13:32:44;3.00;76.70
47338;DHT22;33069;51.970;5.892;2023-01-24T13:35:20;3.20;76.40
47338;DHT22;33069;51.970;5.892;2023-01-24T13:37:56;3.10;76.10
47338;DHT22;33069;51.970;5.892;2023-01-24T13:40:27;3.00;76.00
47338;DHT22;33069;51.970;5.892;2023-01-24T13:42:56;3.20;76.40
47338;DHT22;33069;51.970;5.892;2023-01-24T13:47:49;3.10;75.60
47338;DHT22;33069;51.970;5.892;2023-01-24T13:50:17;3.10;76.00
47338;DHT22;33069;51.970;5.892;2023-01-24T13:52:59;3.00;76.30
47338;DHT22;33069;51.970;5.892;2023-01-24T14:00:51;3.00;76.20
47338;DHT22;33069;51.970;5.892;2023-01-24T14:06:23;3.20;76.80
47338;DHT22;33069;51.970;5.892;2023-01-24T14:08:51;3.20;76.40
47338;DHT22;33069;51.970;5.892;2023-01-24T14:11:33;3.10;76.40
47338;DHT22;33069;51.970;5.892;2023-01-24T14:14:24;3.00;76.30
47338;DHT22;33069;51.970;5.892;2023-01-24T14:19:24;3.00;76.90
47338;DHT22;33069;51.970;5.892;2023-01-24T14:22:15;3.20;77.00
47338;DHT22;33069;51.970;5.892;2023-01-24T14:25:16;3.30;76.60
47338;DHT22;33069;51.970;5.892;2023-01-24T14:27:50;3.40;76.80
47338;DHT22;33069;51.970;5.892;2023-01-24T14:35:14;3.20;76.10
47338;DHT22;33069;51.970;5.892;2023-01-24T14:37:41;3.20;76.10
47338;DHT22;33069;51.970;5.892;2023-01-24T14:40:27;3.20;76.20
47338;DHT22;33069;51.970;5.892;2023-01-24T14:43:03;3.30;75.50
47338;DHT22;33069;51.970;5.892;2023-01-24T14:45:31;3.00;76.20
47338;DHT22;33069;51.970;5.892;2023-01-24T14:47:59;3.10;77.10
47338;DHT22;33069;51.970;5.892;2023-01-24T14:50:33;3.10;76.80
47338;DHT22;33069;51.970;5.892;2023-01-24T14:53:00;3.00;76.90
47338;DHT22;33069;51.970;5.892;2023-01-24T14:57:53;3.00;77.40
47338;DHT22;33069;51.970;5.892;2023-01-24T15:00:21;3.00;77.10
47338;DHT22;33069;51.970;5.892;2023-01-24T15:05:24;3.30;75.70
47338;DHT22;33069;51.970;5.892;2023-01-24T15:07:50;3.00;76.30
47338;DHT22;33069;51.970;5.892;2023-01-24T15:14:00;3.30;76.70
47338;DHT22;33069;51.970;5.892;2023-01-24T15:16:36;3.20;76.80
47338;DHT22;33069;51.970;5.892;2023-01-24T15:19:19;3.30;76.70
47338;DHT22;33069;51.970;5.892;2023-01-24T15:21:47;3.00;76.30
47338;DHT22;33069;51.970;5.892;2023-01-24T15:24:22;3.20;76.90
47338;DHT22;33069;51.970;5.892;2023-01-24T15:26:48;2.90;76.40
47338;DHT22;33069;51.970;5.892;2023-01-24T15:35:22;2.70;77.30
47338;DHT22;33069;51.970;5.892;2023-01-24T15:40:29;2.60;77.70
47338;DHT22;33069;51.970;5.892;2023-01-24T15:42:56;2.60;77.90
47338;DHT22;33069;51.970;5.892;2023-01-24T15:59:42;2.40;78.30
47338;DHT22;33069;51.970;5.892;2023-01-24T16:02:13;2.50;78.80
47338;DHT22;33069;51.970;5.892;2023-01-24T16:04:39;2.70;78.60
47338;DHT22;33069;51.970;5.892;2023-01-24T16:07:05;2.90;78.20
47338;DHT22;33069;51.970;5.892;2023-01-24T16:09:32;2.80;77.90
47338;DHT22;33069;51.970;5.892;2023-01-24T16:11:58;2.70;77.60
47338;DHT22;33069;51.970;5.892;2023-01-24T16:14:24;2.60;77.80
47338;DHT22;33069;51.970;5.892;2023-01-24T16:16:53;2.80;78.60
47338;DHT22;33069;51.970;5.892;2023-01-24T16:19:21;2.70;77.60
47338;DHT22;33069;51.970;5.892;2023-01-24T16:21:47;2.60;77.70
47338;DHT22;33069;51.970;5.892;2023-01-24T16:24:13;2.50;78.20
47338;DHT22;33069;51.970;5.892;2023-01-24T16:26:43;2.60;78.70
47338;DHT22;33069;51.970;5.892;2023-01-24T16:29:18;2.50;78.00
47338;DHT22;33069;51.970;5.892;2023-01-24T16:31:46;2.50;78.10
47338;DHT22;33069;51.970;5.892;2023-01-24T16:34:12;2.50;78.30
47338;DHT22;33069;51.970;5.892;2023-01-24T16:36:38;2.60;78.40
47338;DHT22;33069;51.970;5.892;2023-01-24T16:39:05;2.60;78.20
47338;DHT22;33069;51.970;5.892;2023-01-24T16:41:32;2.50;78.00
47338;DHT22;33069;51.970;5.892;2023-01-24T16:43:58;2.60;78.40
47338;DHT22;33069;51.970;5.892;2023-01-24T16:46:23;2.50;78.00
47338;DHT22;33069;51.970;5.892;2023-01-24T16:48:49;2.30;78.10
47338;DHT22;33069;51.970;5.892;2023-01-24T16:51:17;2.20;78.60
47338;DHT22;33069;51.970;5.892;2023-01-24T16:53:43;2.30;79.00
47338;DHT22;33069;51.970;5.892;2023-01-24T16:56:09;2.30;78.70
47338;DHT22;33069;51.970;5.892;2023-01-24T16:58:35;2.40;78.80
47338;DHT22;33069;51.970;5.892;2023-01-24T17:01:08;2.40;78.90
47338;DHT22;33069;51.970;5.892;2023-01-24T17:03:34;2.40;78.60
47338;DHT22;33069;51.970;5.892;2023-01-24T17:05:59;2.20;78.50
47338;DHT22;33069;51.970;5.892;2023-01-24T17:08:25;2.40;79.00
47338;DHT22;33069;51.970;5.892;2023-01-24T17:10:51;2.40;78.60
47338;DHT22;33069;51.970;5.892;2023-01-24T17:13:17;2.20;78.50
47338;DHT22;33069;51.970;5.892;2023-01-24T17:15:43;2.30;79.00
47338;DHT22;33069;51.970;5.892;2023-01-24T17:18:08;2.50;78.40
47338;DHT22;33069;51.970;5.892;2023-01-24T17:20:34;2.50;78.30
47338;DHT22;33069;51.970;5.892;2023-01-24T17:23:00;2.40;78.20
47338;DHT22;33069;51.970;5.892;2023-01-24T17:25:29;2.30;78.40
47338;DHT22;33069;51.970;5.892;2023-01-24T17:27:55;2.20;78.70
47338;DHT22;33069;51.970;5.892;2023-01-24T17:30:21;2.20;78.90
47338;DHT22;33069;51.970;5.892;2023-01-24T17:32:47;2.20;78.90
47338;DHT22;33069;51.970;5.892;2023-01-24T17:35:12;2.30;79.20
47338;DHT22;33069;51.970;5.892;2023-01-24T17:37:38;2.10;78.90
47338;DHT22;33069;51.970;5.892;2023-01-24T17:40:05;1.90;79.20
47338;DHT22;33069;51.970;5.892;2023-01-24T17:42:31;2.00;79.50
47338;DHT22;33069;51.970;5.892;2023-01-24T17:44:56;2.00;79.60
47338;DHT22;33069;51.970;5.892;2023-01-24T17:47:22;2.20;79.60
47338;DHT22;33069;51.970;5.892;2023-01-24T17:49:48;2.20;79.10
47338;DHT22;33069;51.970;5.892;2023-01-24T17:52:14;2.30;79.10
47338;DHT22;33069;51.970;5.892;2023-01-24T17:54:39;2.20;78.70
47338;DHT22;33069;51.970;5.892;2023-01-24T17:57:05;2.40;78.60
47338;DHT22;33069;51.970;5.892;2023-01-24T17:59:31;2.30;78.10
47338;DHT22;33069;51.970;5.892;2023-01-24T18:01:56;2.30;78.00
47338;DHT22;33069;51.970;5.892;2023-01-24T18:04:22;2.10;77.90
47338;DHT22;33069;51.970;5.892;2023-01-24T18:06:48;2.30;78.40
47338;DHT22;33069;51.970;5.892;2023-01-24T18:09:13;2.30;78.40
47338;DHT22;33069;51.970;5.892;2023-01-24T18:11:39;2.30;78.10
47338;DHT22;33069;51.970;5.892;2023-01-24T18:14:05;2.30;77.70
47338;DHT22;33069;51.970;5.892;2023-01-24T18:16:31;2.20;77.90
47338;DHT22;33069;51.970;5.892;2023-01-24T18:18:56;2.10;78.20
47338;DHT22;33069;51.970;5.892;2023-01-24T18:21:24;2.10;78.60
47338;DHT22;33069;51.970;5.892;2023-01-24T18:23:55;2.20;79.00
47338;DHT22;33069;51.970;5.892;2023-01-24T18:26:22;2.30;78.80
47338;DHT22;33069;51.970;5.892;2023-01-24T18:28:48;2.30;78.10
47338;DHT22;33069;51.970;5.892;2023-01-24T18:31:14;2.40;78.40
47338;DHT22;33069;51.970;5.892;2023-01-24T18:33:40;2.30;78.20
47338;DHT22;33069;51.970;5.892;2023-01-24T18:36:17;2.10;78.40